createdAt,value
2023-09-25T00:01:44.920Z,84.66
2023-09-25T00:04:12.127Z,85.26
2023-09-25T00:06:39.323Z,84.97
2023-09-25T00:09:09.856Z,84.22
2023-09-25T00:11:36.921Z,84.09
2023-09-25T00:14:04.142Z,84.06
2023-09-25T00:16:31.365Z,84.57
2023-09-25T00:18:58.608Z,84.70
2023-09-25T00:21:25.883Z,84.91
2023-09-25T00:23:53.112Z,85.06
2023-09-25T00:26:20.215Z,85.39
2023-09-25T00:28:51.369Z,85.05
2023-09-25T00:31:18.635Z,85.34
2023-09-25T00:33:46.880Z,85.13
2023-09-25T00:36:14.067Z,85.05
2023-09-25T00:38:41.156Z,84.29
2023-09-25T00:41:08.316Z,84.32
2023-09-25T00:43:35.564Z,84.57
2023-09-25T00:46:03.451Z,84.54
2023-09-25T00:48:31.833Z,85.59
2023-09-25T00:51:03.376Z,85.07
2023-09-25T00:53:31.539Z,84.52
2023-09-25T00:55:58.907Z,84.27
2023-09-25T00:58:26.961Z,84.70
2023-09-25T01:00:56.226Z,85.14
2023-09-25T01:03:23.518Z,84.45
2023-09-25T01:05:50.880Z,85.49
2023-09-25T01:08:18.112Z,85.17
2023-09-25T01:10:45.881Z,85.31
2023-09-25T01:13:13.121Z,85.71
2023-09-25T01:15:40.598Z,85.93
2023-09-25T01:18:09.699Z,86.18
2023-09-25T01:20:37.976Z,87.08
2023-09-25T01:23:05.290Z,86.87
2023-09-25T01:25:32.565Z,87.70
2023-09-25T01:27:59.944Z,87.29
2023-09-25T01:30:27.487Z,87.56
2023-09-25T01:32:54.988Z,88.15
2023-09-25T01:35:27.613Z,87.61
2023-09-25T01:37:59.960Z,88.22
2023-09-25T01:40:28.242Z,88.22
2023-09-25T01:42:55.356Z,88.79
2023-09-25T01:45:22.542Z,88.50
2023-09-25T01:47:53.198Z,88.38
2023-09-25T01:50:26.193Z,88.81
2023-09-25T01:52:56.545Z,88.19
2023-09-25T01:55:23.655Z,88.76
2023-09-25T01:57:50.877Z,88.83
2023-09-25T02:00:20.221Z,88.37
2023-09-25T02:02:48.559Z,88.92
2023-09-25T02:05:16.877Z,88.64
2023-09-25T02:07:44.160Z,88.93
2023-09-25T02:10:11.434Z,88.86
2023-09-25T02:12:39.076Z,89.41
2023-09-25T02:15:08.454Z,89.36
2023-09-25T02:17:36.614Z,88.78
2023-09-25T02:20:25.382Z,88.94
2023-09-25T02:22:52.844Z,89.71
2023-09-25T02:25:20.254Z,90.58
2023-09-25T02:27:48.016Z,90.06
2023-09-25T02:30:16.099Z,90.21
2023-09-25T02:32:43.944Z,90.68
2023-09-25T02:35:12.244Z,90.97
2023-09-25T02:37:42.414Z,91.16
2023-09-25T02:40:16.267Z,91.09
2023-09-25T02:42:47.635Z,90.60
2023-09-25T02:45:15.531Z,91.33
2023-09-25T02:47:43.044Z,90.97
2023-09-25T02:50:11.289Z,91.10
2023-09-25T02:52:38.571Z,91.34
2023-09-25T02:55:06.262Z,91.51
2023-09-25T02:57:33.603Z,92.24
2023-09-25T03:00:02.739Z,92.23
2023-09-25T03:02:30.403Z,92.14
2023-09-25T03:04:57.967Z,92.39
2023-09-25T03:07:25.139Z,92.82
2023-09-25T03:09:52.413Z,92.74
2023-09-25T03:12:20.525Z,92.97
2023-09-25T03:14:49.630Z,93.43
2023-09-25T03:17:16.760Z,93.34
2023-09-25T03:19:43.973Z,93.21
2023-09-25T03:22:11.084Z,93.38
2023-09-25T03:24:38.342Z,93.25
2023-09-25T03:27:05.448Z,93.60
2023-09-25T03:29:32.555Z,93.00
2023-09-25T03:31:59.789Z,93.06
2023-09-25T03:34:29.192Z,94.28
2023-09-25T03:36:56.276Z,93.71
2023-09-25T03:39:23.405Z,93.67
2023-09-25T03:41:50.576Z,93.55
2023-09-25T03:44:18.087Z,93.77
2023-09-25T03:46:45.187Z,93.85
2023-09-25T03:49:12.365Z,93.08
2023-09-25T03:51:39.506Z,93.66
2023-09-25T03:54:06.749Z,93.87
2023-09-25T03:56:33.948Z,93.74
2023-09-25T03:59:01.019Z,93.77
2023-09-25T04:01:28.410Z,93.74
2023-09-25T04:03:55.779Z,93.55
2023-09-25T04:06:23.064Z,93.67
2023-09-25T04:08:50.752Z,93.88
2023-09-25T04:11:19.913Z,93.88
2023-09-25T04:13:48.447Z,94.42
2023-09-25T04:16:15.730Z,93.80
2023-09-25T04:18:44.115Z,94.10
2023-09-25T04:21:19.043Z,94.01
2023-09-25T04:23:46.437Z,93.97
2023-09-25T04:26:13.615Z,94.05
2023-09-25T04:28:44.440Z,94.11
2023-09-25T04:31:12.849Z,94.53
2023-09-25T04:33:42.805Z,94.34
2023-09-25T04:36:11.993Z,93.63
2023-09-25T04:38:39.403Z,93.42
2023-09-25T04:41:07.214Z,93.79
2023-09-25T04:43:34.475Z,94.15
2023-09-25T04:46:02.443Z,93.38
2023-09-25T04:48:31.361Z,93.52
2023-09-25T04:50:59.002Z,94.41
2023-09-25T04:53:26.454Z,94.28
2023-09-25T04:55:54.038Z,93.79
2023-09-25T04:58:21.383Z,93.64
2023-09-25T05:00:49.984Z,94.25
2023-09-25T05:03:17.536Z,94.12
2023-09-25T05:05:46.199Z,94.69
2023-09-25T05:08:13.852Z,95.00
2023-09-25T05:10:41.142Z,94.91
2023-09-25T05:13:08.370Z,94.99
2023-09-25T05:15:36.252Z,95.38
2023-09-25T05:18:04.280Z,95.07
2023-09-25T05:20:31.539Z,94.84
2023-09-25T05:22:58.897Z,94.98
2023-09-25T05:25:26.261Z,94.51
2023-09-25T05:27:55.924Z,93.90
2023-09-25T05:30:23.630Z,93.40
2023-09-25T05:32:54.877Z,92.98
2023-09-25T05:35:22.613Z,93.49
2023-09-25T05:37:50.825Z,93.84
2023-09-25T05:40:19.092Z,94.11
2023-09-25T05:42:48.119Z,94.27
2023-09-25T05:45:17.565Z,93.80
2023-09-25T05:47:46.493Z,93.99
2023-09-25T05:50:14.403Z,94.07
2023-09-25T05:52:41.866Z,95.11
2023-09-25T05:55:09.952Z,94.79
2023-09-25T05:57:37.474Z,94.71
2023-09-25T06:00:24.558Z,95.30
2023-09-25T06:02:52.250Z,95.28
2023-09-25T06:05:19.627Z,95.74
2023-09-25T06:07:46.773Z,95.65
2023-09-25T06:10:13.989Z,95.73
2023-09-25T06:12:41.370Z,95.58
2023-09-25T06:15:12.199Z,95.94
2023-09-25T06:17:41.264Z,96.30
2023-09-25T06:20:17.587Z,96.39
2023-09-25T06:22:46.128Z,96.45
2023-09-25T06:25:19.377Z,96.46
2023-09-25T06:27:47.985Z,96.25
2023-09-25T06:30:16.263Z,96.35
2023-09-25T06:32:43.543Z,96.44
2023-09-25T06:35:10.782Z,95.91
2023-09-25T06:37:39.614Z,96.27
2023-09-25T06:40:11.697Z,96.00
2023-09-25T06:42:40.558Z,95.67
2023-09-25T06:45:10.816Z,95.92
2023-09-25T06:47:38.904Z,95.93
2023-09-25T06:50:07.074Z,95.75
2023-09-25T06:52:34.218Z,95.71
2023-09-25T06:55:01.331Z,95.56
2023-09-25T06:57:28.532Z,95.05
2023-09-25T06:59:55.733Z,94.66
2023-09-25T07:02:23.007Z,94.76
2023-09-25T07:04:50.698Z,94.38
2023-09-25T07:07:18.119Z,93.95
2023-09-25T07:09:45.489Z,94.05
2023-09-25T07:12:15.881Z,93.60
2023-09-25T07:14:49.873Z,93.05
2023-09-25T07:17:17.807Z,92.24
2023-09-25T07:19:44.993Z,90.80
2023-09-25T07:22:12.224Z,89.80
2023-09-25T07:24:39.879Z,88.62
2023-09-25T07:27:07.056Z,88.95
2023-09-25T07:29:42.052Z,88.37
2023-09-25T07:32:10.123Z,87.50
2023-09-25T07:34:38.162Z,86.54
2023-09-25T07:37:06.769Z,85.61
2023-09-25T07:39:36.356Z,85.63
2023-09-25T07:42:03.682Z,84.82
2023-09-25T07:44:34.797Z,83.63
2023-09-25T07:47:08.012Z,82.77
2023-09-25T07:49:41.819Z,82.99
2023-09-25T07:52:19.779Z,83.08
2023-09-25T07:54:50.067Z,81.81
2023-09-25T07:57:20.693Z,81.27
2023-09-25T07:59:49.054Z,80.85
2023-09-25T08:02:21.360Z,80.65
2023-09-25T08:04:51.986Z,79.43
2023-09-25T08:07:20.368Z,79.07
2023-09-25T08:09:47.881Z,78.83
2023-09-25T08:12:15.191Z,77.48
2023-09-25T08:14:42.449Z,75.92
2023-09-25T08:17:10.166Z,74.71
2023-09-25T08:19:37.660Z,74.27
2023-09-25T08:22:05.252Z,73.27
2023-09-25T08:24:32.524Z,73.35
2023-09-25T08:27:01.295Z,73.48
2023-09-25T08:29:28.475Z,72.79
2023-09-25T08:31:55.717Z,71.23
2023-09-25T08:34:23.239Z,69.70
2023-09-25T08:36:50.572Z,69.73
2023-09-25T08:39:18.936Z,69.73
2023-09-25T08:41:47.560Z,69.19
2023-09-25T08:44:17.475Z,68.20
2023-09-25T08:46:45.427Z,68.22
2023-09-25T08:49:13.629Z,68.13
2023-09-25T08:51:41.266Z,67.36
2023-09-25T08:54:09.756Z,67.74
2023-09-25T08:56:38.259Z,66.07
2023-09-25T08:59:05.700Z,66.17
2023-09-25T09:01:33.559Z,65.82
2023-09-25T09:04:00.823Z,65.24
2023-09-25T09:06:28.335Z,65.83
2023-09-25T09:08:57.869Z,65.42
2023-09-25T09:11:25.053Z,64.48
2023-09-25T09:13:52.262Z,64.93
2023-09-25T09:16:21.153Z,64.74
2023-09-25T09:18:48.912Z,64.41
2023-09-25T09:21:28.646Z,64.80
2023-09-25T09:23:58.492Z,64.21
2023-09-25T09:26:26.928Z,64.20
2023-09-25T09:28:57.511Z,64.45
2023-09-25T09:31:24.593Z,64.17
2023-09-25T09:33:56.844Z,64.93
2023-09-25T09:36:24.990Z,64.88
2023-09-25T09:38:53.729Z,65.66
2023-09-25T09:41:21.158Z,66.25
2023-09-25T09:43:49.028Z,66.29
2023-09-25T09:46:17.690Z,66.91
2023-09-25T09:48:48.116Z,67.12
2023-09-25T09:51:19.074Z,66.81
2023-09-25T09:53:46.743Z,66.87
2023-09-25T09:56:15.988Z,67.11
2023-09-25T09:58:43.271Z,67.28
2023-09-25T10:01:11.088Z,67.26
2023-09-25T10:03:38.744Z,67.08
2023-09-25T10:06:06.785Z,66.40
2023-09-25T10:08:33.930Z,65.21
2023-09-25T10:11:21.522Z,64.41
2023-09-25T10:13:48.747Z,63.84
2023-09-25T10:16:17.256Z,62.76
2023-09-25T10:18:44.705Z,62.76
2023-09-25T10:21:16.224Z,62.65
2023-09-25T10:23:55.754Z,63.01
2023-09-25T10:26:25.934Z,62.37
2023-09-25T10:29:16.499Z,62.47
2023-09-25T10:31:48.401Z,61.94
2023-09-25T10:34:15.674Z,61.55
2023-09-25T10:36:45.452Z,61.39
2023-09-25T10:39:17.042Z,61.52
2023-09-25T10:41:47.189Z,61.92
2023-09-25T10:44:15.426Z,60.79
2023-09-25T10:46:42.971Z,60.36
2023-09-25T10:49:10.500Z,61.29
2023-09-25T10:51:37.703Z,60.99
2023-09-25T10:54:05.182Z,61.74
2023-09-25T10:56:34.397Z,61.41
2023-09-25T10:59:02.548Z,61.91
2023-09-25T11:01:31.366Z,62.11
2023-09-25T11:04:02.679Z,62.24
2023-09-25T11:06:30.639Z,62.98
2023-09-25T11:09:08.274Z,62.97
2023-09-25T11:11:35.642Z,63.79
2023-09-25T11:14:03.997Z,62.95
2023-09-25T11:16:31.348Z,63.31
2023-09-25T11:19:12.220Z,62.69
2023-09-25T11:21:41.383Z,63.11
2023-09-25T11:24:09.973Z,62.61
2023-09-25T11:26:38.494Z,60.84
2023-09-25T11:29:09.436Z,61.35
2023-09-25T11:31:54.383Z,62.03
2023-09-25T11:34:27.798Z,61.83
2023-09-25T11:36:55.148Z,62.53
2023-09-25T11:39:22.641Z,62.63
2023-09-25T11:41:49.911Z,62.81
2023-09-25T11:44:17.079Z,62.26
2023-09-25T11:46:44.569Z,61.72
2023-09-25T11:49:13.771Z,61.90
2023-09-25T11:51:41.563Z,61.35
2023-09-25T11:54:09.230Z,60.98
2023-09-25T11:56:36.568Z,60.78
2023-09-25T11:59:03.781Z,61.18
2023-09-25T12:01:31.045Z,60.96
2023-09-25T12:03:58.835Z,60.96
2023-09-25T12:06:27.953Z,60.75
2023-09-25T12:08:56.471Z,60.77
2023-09-25T12:11:23.907Z,61.17
2023-09-25T12:13:51.710Z,61.84
2023-09-25T12:16:19.982Z,62.75
2023-09-25T12:18:48.113Z,62.07
2023-09-25T12:21:15.645Z,61.93
2023-09-25T12:23:44.227Z,61.34
2023-09-25T12:26:11.521Z,61.28
2023-09-25T12:28:39.238Z,61.31
2023-09-25T12:31:06.450Z,61.03
2023-09-25T12:33:33.744Z,60.96
2023-09-25T12:36:01.109Z,61.29
2023-09-25T12:38:28.806Z,60.29
2023-09-25T12:40:57.633Z,60.10
2023-09-25T12:43:25.422Z,59.79
2023-09-25T12:45:53.122Z,60.44
2023-09-25T12:48:21.299Z,60.44
2023-09-25T12:50:50.428Z,60.25
2023-09-25T12:53:20.325Z,60.15
2023-09-25T12:55:47.598Z,60.19
2023-09-25T12:58:14.807Z,60.15
2023-09-25T13:00:42.164Z,59.77
2023-09-25T13:03:10.052Z,60.15
2023-09-25T13:05:37.698Z,60.35
2023-09-25T13:08:05.329Z,60.06
2023-09-25T13:10:32.900Z,60.38
2023-09-25T13:13:00.296Z,59.91
2023-09-25T13:15:27.782Z,60.31
2023-09-25T13:17:55.090Z,60.26
2023-09-25T13:20:22.552Z,60.26
2023-09-25T13:22:49.901Z,60.25
2023-09-25T13:25:17.264Z,60.52
2023-09-25T13:27:51.122Z,60.15
2023-09-25T13:30:20.674Z,60.69
2023-09-25T13:32:48.231Z,60.46
2023-09-25T13:35:16.021Z,60.61
2023-09-25T13:37:44.162Z,61.03
2023-09-25T13:40:22.516Z,60.78
2023-09-25T13:42:49.990Z,61.04
2023-09-25T13:45:17.163Z,60.61
2023-09-25T13:47:45.220Z,60.79
2023-09-25T13:50:14.019Z,60.86
2023-09-25T13:52:42.351Z,61.01
2023-09-25T13:55:11.881Z,60.90
2023-09-25T13:57:40.228Z,61.00
2023-09-25T14:00:09.901Z,60.60
2023-09-25T14:02:42.141Z,60.68
2023-09-25T14:05:10.238Z,60.55
2023-09-25T14:07:37.475Z,60.35
2023-09-25T14:10:05.272Z,60.46
2023-09-25T14:12:32.729Z,60.59
2023-09-25T14:15:00.047Z,59.98
2023-09-25T14:17:27.337Z,59.98
2023-09-25T14:19:54.520Z,60.43
2023-09-25T14:22:21.830Z,60.25
2023-09-25T14:24:49.047Z,60.49
2023-09-25T14:27:18.498Z,60.54
2023-09-25T14:29:45.597Z,60.29
2023-09-25T14:32:13.017Z,60.07
2023-09-25T14:34:40.208Z,60.08
2023-09-25T14:37:07.449Z,60.17
2023-09-25T14:39:34.721Z,60.13
2023-09-25T14:42:01.984Z,60.33
2023-09-25T14:44:29.159Z,60.47
2023-09-25T14:46:56.670Z,60.78
2023-09-25T14:49:24.140Z,60.82
2023-09-25T14:51:54.235Z,60.92
2023-09-25T14:54:21.527Z,60.89
2023-09-25T14:56:48.724Z,61.03
2023-09-25T14:59:15.958Z,60.83
2023-09-25T15:01:43.473Z,60.76
2023-09-25T15:04:10.812Z,61.02
2023-09-25T15:06:38.068Z,61.04
2023-09-25T15:09:05.359Z,61.07
2023-09-25T15:11:32.536Z,61.04
2023-09-25T15:14:00.340Z,61.26
2023-09-25T15:16:27.705Z,61.40
2023-09-25T15:18:55.001Z,60.98
2023-09-25T15:21:22.158Z,61.15
2023-09-25T15:23:49.624Z,61.26
2023-09-25T15:26:17.028Z,61.37
2023-09-25T15:28:44.341Z,61.40
2023-09-25T15:31:11.865Z,61.65
2023-09-25T15:33:39.232Z,61.46
2023-09-25T15:36:06.591Z,61.55
2023-09-25T15:38:33.834Z,61.75
2023-09-25T15:41:01.118Z,61.89
2023-09-25T15:43:28.196Z,62.02
2023-09-25T15:45:55.568Z,62.13
2023-09-25T15:48:22.841Z,62.22
2023-09-25T15:50:52.150Z,62.12
2023-09-25T15:53:19.379Z,61.83
2023-09-25T15:55:46.479Z,62.01
2023-09-25T15:58:13.773Z,62.11
2023-09-25T16:00:41.256Z,62.24
2023-09-25T16:03:08.575Z,62.47
2023-09-25T16:05:36.013Z,62.50
2023-09-25T16:08:03.245Z,62.39
2023-09-25T16:10:30.482Z,62.57
2023-09-25T16:12:57.690Z,62.72
2023-09-25T16:15:24.816Z,62.62
2023-09-25T16:17:52.010Z,62.76
2023-09-25T16:20:19.990Z,62.82
2023-09-25T16:22:47.061Z,63.13
2023-09-25T16:25:14.429Z,63.12
2023-09-25T16:27:42.082Z,63.10
2023-09-25T16:30:09.552Z,63.36
2023-09-25T16:32:36.714Z,63.70
2023-09-25T16:35:04.050Z,63.60
2023-09-25T16:37:31.199Z,63.57
2023-09-25T16:39:58.497Z,63.65
2023-09-25T16:42:25.722Z,63.85
2023-09-25T16:44:52.849Z,63.97
2023-09-25T16:47:22.093Z,63.95
2023-09-25T16:49:50.557Z,64.12
2023-09-25T16:52:17.651Z,64.33
2023-09-25T16:54:44.957Z,64.43
2023-09-25T16:57:12.064Z,64.76
2023-09-25T16:59:39.326Z,64.66
2023-09-25T17:02:07.327Z,65.09
2023-09-25T17:04:34.736Z,65.15
2023-09-25T17:07:01.935Z,65.06
2023-09-25T17:09:29.190Z,65.47
2023-09-25T17:11:56.339Z,65.59
2023-09-25T17:14:23.497Z,65.70
2023-09-25T17:16:50.809Z,65.61
2023-09-25T17:19:18.007Z,65.77
2023-09-25T17:21:45.209Z,66.17
2023-09-25T17:24:12.482Z,66.11
2023-09-25T17:26:39.589Z,66.29
2023-09-25T17:29:06.743Z,66.41
2023-09-25T17:31:34.015Z,66.56
2023-09-25T17:34:01.291Z,66.37
2023-09-25T17:36:28.406Z,66.40
2023-09-25T17:38:55.718Z,66.53
2023-09-25T17:41:22.957Z,66.60
2023-09-25T17:43:50.249Z,66.65
2023-09-25T17:46:17.687Z,66.56
2023-09-25T17:48:45.114Z,66.56
2023-09-25T17:51:12.764Z,66.42
2023-09-25T17:53:39.994Z,66.38
2023-09-25T17:56:09.867Z,66.35
2023-09-25T17:58:37.169Z,66.36
2023-09-25T18:01:04.580Z,66.44
2023-09-25T18:03:32.046Z,66.49
2023-09-25T18:05:59.398Z,66.28
2023-09-25T18:08:26.564Z,66.52
2023-09-25T18:10:53.949Z,66.78
2023-09-25T18:13:22.275Z,66.83
2023-09-25T18:15:50.633Z,66.35
2023-09-25T18:18:18.218Z,66.65
2023-09-25T18:20:45.687Z,66.51
2023-09-25T18:23:13.267Z,66.63
2023-09-25T18:25:42.408Z,66.71
2023-09-25T18:28:09.773Z,66.95
2023-09-25T18:30:37.881Z,66.74
2023-09-25T18:33:10.681Z,66.97
2023-09-25T18:35:38.577Z,66.96
2023-09-25T18:38:05.680Z,66.89
2023-09-25T18:40:35.957Z,67.14
2023-09-25T18:43:04.518Z,67.22
2023-09-25T18:45:32.338Z,67.23
2023-09-25T18:47:59.969Z,67.27
2023-09-25T18:50:27.155Z,67.53
2023-09-25T18:52:54.312Z,67.56
2023-09-25T18:55:21.596Z,67.79
2023-09-25T18:57:48.736Z,67.71
2023-09-25T19:00:16.214Z,67.86
2023-09-25T19:02:43.407Z,67.83
2023-09-25T19:05:10.730Z,68.00
2023-09-25T19:07:38.102Z,68.01
2023-09-25T19:10:06.148Z,67.99
2023-09-25T19:12:33.520Z,68.21
2023-09-25T19:15:00.979Z,68.12
2023-09-25T19:17:28.088Z,68.42
2023-09-25T19:19:55.201Z,68.46
2023-09-25T19:22:22.350Z,68.43
2023-09-25T19:24:49.519Z,68.71
2023-09-25T19:27:16.670Z,68.63
2023-09-25T19:29:43.825Z,68.51
2023-09-25T19:32:11.295Z,68.55
2023-09-25T19:34:38.634Z,68.67
2023-09-25T19:37:06.018Z,68.57
2023-09-25T19:39:33.269Z,68.89
2023-09-25T19:42:00.460Z,68.95
2023-09-25T19:44:27.757Z,69.23
2023-09-25T19:46:54.963Z,69.21
2023-09-25T19:49:22.340Z,69.64
2023-09-25T19:51:50.592Z,69.32
2023-09-25T19:54:18.116Z,69.28
2023-09-25T19:56:45.261Z,69.50
2023-09-25T19:59:12.489Z,69.59
2023-09-25T20:01:41.972Z,69.51
2023-09-25T20:04:10.270Z,69.66
2023-09-25T20:06:37.831Z,69.90
2023-09-25T20:09:05.188Z,69.88
2023-09-25T20:11:32.288Z,69.69
2023-09-25T20:13:59.508Z,69.76
2023-09-25T20:16:26.979Z,69.88
2023-09-25T20:18:54.397Z,69.73
2023-09-25T20:21:23.243Z,69.94
2023-09-25T20:23:53.198Z,70.21
2023-09-25T20:26:20.306Z,69.88
2023-09-25T20:28:47.508Z,69.83
2023-09-25T20:31:14.792Z,69.96
2023-09-25T20:33:42.092Z,70.03
2023-09-25T20:36:10.113Z,69.97
2023-09-25T20:38:37.804Z,70.10
2023-09-25T20:41:05.029Z,70.20
2023-09-25T20:43:32.176Z,70.11
2023-09-25T20:45:59.947Z,70.34
2023-09-25T20:48:27.093Z,70.37
2023-09-25T20:50:54.205Z,70.26
2023-09-25T20:53:21.493Z,70.70
2023-09-25T20:55:48.978Z,70.65
2023-09-25T20:58:16.405Z,70.46
2023-09-25T21:00:43.729Z,70.71
2023-09-25T21:03:11.207Z,70.79
2023-09-25T21:05:38.470Z,70.45
2023-09-25T21:08:05.898Z,70.68
2023-09-25T21:10:33.086Z,70.58
2023-09-25T21:13:00.377Z,70.64
2023-09-25T21:15:27.549Z,70.56
2023-09-25T21:17:54.739Z,70.87
2023-09-25T21:20:21.949Z,70.90
2023-09-25T21:22:49.078Z,71.02
2023-09-25T21:25:16.389Z,70.99
2023-09-25T21:27:43.894Z,71.06
2023-09-25T21:30:12.792Z,71.29
2023-09-25T21:32:39.837Z,71.36
2023-09-25T21:35:07.320Z,71.63
2023-09-25T21:37:34.601Z,71.66
2023-09-25T21:40:02.069Z,71.72
2023-09-25T21:42:29.261Z,71.82
2023-09-25T21:44:57.147Z,72.17
2023-09-25T21:47:24.370Z,72.11
2023-09-25T21:49:51.613Z,72.33
2023-09-25T21:52:18.960Z,72.42
2023-09-25T21:54:46.342Z,72.58
2023-09-25T21:57:13.648Z,72.65
2023-09-25T21:59:40.736Z,72.80
2023-09-25T22:02:08.629Z,72.96
2023-09-25T22:04:35.810Z,73.04
2023-09-25T22:07:03.419Z,73.14
2023-09-25T22:09:31.125Z,73.51
2023-09-25T22:11:58.530Z,73.77
2023-09-25T22:14:25.805Z,73.80
2023-09-25T22:16:52.942Z,74.07
2023-09-25T22:19:20.185Z,74.26
2023-09-25T22:21:48.554Z,74.42
2023-09-25T22:24:16.494Z,74.53
2023-09-25T22:26:44.097Z,74.36
2023-09-25T22:29:11.347Z,74.52
2023-09-25T22:31:40.822Z,75.04
2023-09-25T22:34:09.063Z,74.82
2023-09-25T22:36:36.235Z,75.28
2023-09-25T22:39:04.061Z,75.14
2023-09-25T22:41:31.222Z,75.35
2023-09-25T22:43:58.624Z,75.47
2023-09-25T22:46:25.939Z,75.36
2023-09-25T22:48:53.155Z,75.70
2023-09-25T22:51:20.458Z,75.86
2023-09-25T22:53:47.867Z,76.15
2023-09-25T22:56:15.001Z,76.29
2023-09-25T22:58:42.141Z,76.15
2023-09-25T23:01:10.122Z,76.36
2023-09-25T23:03:37.442Z,76.79
2023-09-25T23:06:05.667Z,76.70
2023-09-25T23:08:32.901Z,77.15
2023-09-25T23:11:00.092Z,76.90
2023-09-25T23:13:27.332Z,77.09
2023-09-25T23:15:54.634Z,77.23
2023-09-25T23:18:21.829Z,77.28
2023-09-25T23:20:52.754Z,77.28
2023-09-25T23:23:19.953Z,77.33
2023-09-25T23:25:47.102Z,77.44
2023-09-25T23:28:14.725Z,77.50
2023-09-25T23:30:42.007Z,77.89
2023-09-25T23:33:09.322Z,78.11
2023-09-25T23:35:36.611Z,78.05
2023-09-25T23:38:04.245Z,78.17
2023-09-25T23:40:32.126Z,78.23
2023-09-25T23:42:59.667Z,78.40
2023-09-25T23:45:26.864Z,78.39
2023-09-25T23:47:54.438Z,78.52
2023-09-25T23:50:21.817Z,78.60
2023-09-25T23:52:50.114Z,78.67
2023-09-25T23:55:17.447Z,78.66
2023-09-25T23:57:44.689Z,78.83
